TimeCST,TemperatureF,Dew PointF,Humidity,Sea Level PressureIn,VisibilityMPH,Wind Direction,Wind SpeedMPH,Gust SpeedMPH,PrecipitationIn,Events,Conditions,WindDirDegrees,DateUTC
12:15 AM,27.9,25.2,90,29.88,10.0,SSW,9.2,-,N/A,,Overcast,210,2013-02-05 06:15:00
12:35 AM,28.0,25.3,90,29.88,10.0,SSW,6.9,-,N/A,,Overcast,210,2013-02-05 06:35:00
12:55 AM,28.2,25.7,90,29.88,10.0,SSW,5.8,-,N/A,,Overcast,210,2013-02-05 06:55:00
1:15 AM,28.2,25.7,90,29.87,10.0,SSW,5.8,-,N/A,,Overcast,210,2013-02-05 07:15:00
1:35 AM,28.2,25.7,90,29.85,10.0,SSW,5.8,-,N/A,,Overcast,200,2013-02-05 07:35:00
1:55 AM,28.2,25.7,90,29.86,10.0,SSW,5.8,-,N/A,,Overcast,200,2013-02-05 07:55:00
2:15 AM,26.4,24.3,92,29.85,10.0,South,4.6,-,N/A,,Scattered Clouds,180,2013-02-05 08:15:00
2:35 AM,25.7,23.9,93,29.85,7.0,SSE,5.8,-,N/A,,Clear,150,2013-02-05 08:35:00
2:55 AM,26.2,24.8,94,29.84,7.0,South,6.9,-,N/A,,Clear,170,2013-02-05 08:55:00
3:15 AM,27.1,25.3,93,29.83,7.0,South,6.9,-,N/A,,Clear,180,2013-02-05 09:15:00
3:35 AM,27.3,25.5,93,29.82,7.0,South,5.8,-,N/A,,Clear,180,2013-02-05 09:35:00
3:55 AM,27.5,25.7,93,29.81,7.0,South,8.1,-,N/A,,Clear,170,2013-02-05 09:55:00
4:15 AM,28.4,26.6,93,29.82,10.0,South,5.8,-,N/A,,Mostly Cloudy,190,2013-02-05 10:15:00
4:35 AM,29.3,27.0,91,29.83,10.0,SW,4.6,-,N/A,,Overcast,220,2013-02-05 10:35:00
4:55 AM,31.1,28.0,88,29.83,10.0,SW,3.5,-,N/A,,Overcast,230,2013-02-05 10:55:00
5:15 AM,31.6,28.4,88,29.83,10.0,WSW,4.6,-,N/A,,Overcast,250,2013-02-05 11:15:00
5:35 AM,31.3,28.0,88,29.83,10.0,West,4.6,-,N/A,,Overcast,260,2013-02-05 11:35:00
6:15 AM,33.3,29.1,85,29.84,10.0,SW,4.6,-,N/A,,Overcast,230,2013-02-05 12:15:00
6:55 AM,35.6,29.1,77,29.85,10.0,WNW,4.6,-,N/A,,Mostly Cloudy,290,2013-02-05 12:55:00
7:15 AM,35.6,28.8,76,29.85,10.0,WNW,3.5,-,N/A,,Mostly Cloudy,290,2013-02-05 13:15:00
7:35 AM,36.0,28.9,76,29.85,10.0,West,9.2,-,N/A,,Scattered Clouds,270,2013-02-05 13:35:00
7:55 AM,35.2,28.4,76,29.86,10.0,West,8.1,-,N/A,,Scattered Clouds,270,2013-02-05 13:55:00
8:15 AM,36.0,29.1,76,29.88,10.0,West,8.1,-,N/A,,Scattered Clouds,280,2013-02-05 14:15:00
8:35 AM,40.1,30.2,68,29.89,10.0,WNW,9.2,-,N/A,,Mostly Cloudy,290,2013-02-05 14:35:00
8:55 AM,42.4,30.7,63,29.91,10.0,WNW,11.5,-,N/A,,Scattered Clouds,300,2013-02-05 14:55:00
9:15 AM,43.9,30.7,60,29.92,10.0,NW,15.0,18.4,N/A,,Clear,310,2013-02-05 15:15:00
9:35 AM,44.6,31.1,59,29.93,10.0,NW,10.4,-,N/A,,Clear,310,2013-02-05 15:35:00
9:55 AM,45.1,31.3,58,29.94,10.0,NW,18.4,24.2,N/A,,Clear,320,2013-02-05 15:55:00
10:15 AM,45.7,31.3,57,29.95,10.0,NW,15.0,-,N/A,,Clear,320,2013-02-05 16:15:00
10:35 AM,45.7,31.6,58,29.96,10.0,NNW,16.1,-,N/A,,Clear,330,2013-02-05 16:35:00
10:55 AM,46.4,32.0,57,29.97,10.0,NW,15.0,23.0,N/A,,Clear,320,2013-02-05 16:55:00
11:15 AM,47.1,32.4,57,29.98,10.0,NW,12.7,-,N/A,,Clear,320,2013-02-05 17:15:00
11:35 AM,47.8,31.8,54,29.98,10.0,NNW,12.7,-,N/A,,Clear,330,2013-02-05 17:35:00
11:55 AM,48.4,31.8,53,29.98,10.0,NW,15.0,-,N/A,,Clear,320,2013-02-05 17:55:00
12:15 PM,48.9,30.7,50,29.98,10.0,NNW,16.1,21.9,N/A,,Clear,330,2013-02-05 18:15:00
12:35 PM,49.3,30.7,49,29.98,10.0,NW,13.8,20.7,N/A,,Clear,320,2013-02-05 18:35:00
12:55 PM,49.3,28.9,45,29.98,10.0,NNW,13.8,21.9,N/A,,Clear,330,2013-02-05 18:55:00
1:15 PM,49.5,29.8,47,29.98,10.0,NNW,13.8,23.0,N/A,,Clear,330,2013-02-05 19:15:00
1:35 PM,50.0,29.8,46,29.99,10.0,NNW,12.7,20.7,N/A,,Clear,340,2013-02-05 19:35:00
1:55 PM,50.5,28.2,42,29.99,10.0,NNW,18.4,-,N/A,,Clear,330,2013-02-05 19:55:00
2:15 PM,50.4,28.8,43,29.99,10.0,NNW,12.7,20.7,N/A,,Clear,330,2013-02-05 20:15:00
2:35 PM,50.7,27.5,41,29.98,10.0,NNW,16.1,21.9,N/A,,Clear,330,2013-02-05 20:35:00
2:55 PM,50.5,28.2,42,29.98,10.0,NNW,16.1,20.7,N/A,,Clear,340,2013-02-05 20:55:00
3:15 PM,50.7,27.7,41,29.98,10.0,NNW,17.3,21.9,N/A,,Clear,330,2013-02-05 21:15:00
3:35 PM,50.2,28.6,43,29.99,10.0,NNW,15.0,19.6,N/A,,Clear,330,2013-02-05 21:35:00
3:55 PM,50.2,27.5,42,29.99,10.0,NNW,12.7,-,N/A,,Clear,330,2013-02-05 21:55:00
4:15 PM,50.0,26.8,41,29.99,10.0,NNW,11.5,-,N/A,,Clear,340,2013-02-05 22:15:00
4:35 PM,49.1,27.1,43,29.99,10.0,NNW,8.1,-,N/A,,Clear,330,2013-02-05 22:35:00
4:55 PM,47.3,29.8,51,29.99,10.0,NNW,6.9,-,N/A,,Clear,340,2013-02-05 22:55:00
5:15 PM,45.1,30.0,55,30.00,10.0,North,5.8,-,N/A,,Clear,350,2013-02-05 23:15:00
5:35 PM,42.8,29.8,60,30.00,10.0,North,4.6,-,N/A,,Clear,350,2013-02-05 23:35:00
5:55 PM,41.0,28.4,61,30.01,10.0,NNW,4.6,-,N/A,,Clear,340,2013-02-05 23:55:00
6:15 PM,41.2,25.9,55,30.01,10.0,North,5.8,-,N/A,,Clear,350,2013-02-06 00:15:00
6:35 PM,39.9,26.1,58,30.02,10.0,North,4.6,-,N/A,,Clear,360,2013-02-06 00:35:00
6:55 PM,37.4,26.6,65,30.02,10.0,North,3.5,-,N/A,,Clear,10,2013-02-06 00:55:00
7:15 PM,38.7,25.7,60,30.03,10.0,Calm,Calm,-,N/A,,Clear,0,2013-02-06 01:15:00
7:55 PM,34.3,26.1,72,30.04,10.0,Calm,Calm,-,N/A,,Clear,0,2013-02-06 01:55:00
8:35 PM,34.5,26.4,72,30.05,10.0,Calm,Calm,-,N/A,,Clear,0,2013-02-06 02:35:00
8:55 PM,34.3,27.3,76,30.05,10.0,Calm,Calm,-,N/A,,Clear,0,2013-02-06 02:55:00
9:15 PM,34.3,26.4,73,30.05,10.0,Calm,Calm,-,N/A,,Clear,0,2013-02-06 03:15:00
9:35 PM,34.2,26.6,74,30.05,10.0,Calm,Calm,-,N/A,,Clear,0,2013-02-06 03:35:00
9:55 PM,31.6,26.6,82,30.05,10.0,Calm,Calm,-,N/A,,Clear,0,2013-02-06 03:55:00
10:15 PM,32.2,27.0,81,30.05,10.0,Calm,Calm,-,N/A,,Clear,0,2013-02-06 04:15:00
10:35 PM,30.9,27.0,85,30.05,10.0,Calm,Calm,-,N/A,,Clear,0,2013-02-06 04:35:00
10:55 PM,31.1,26.8,84,30.05,10.0,Calm,Calm,-,N/A,,Scattered Clouds,0,2013-02-06 04:55:00
11:15 PM,30.0,26.6,87,30.05,10.0,Calm,Calm,-,N/A,,Clear,0,2013-02-06 05:15:00
11:35 PM,30.2,26.6,86,30.05,10.0,SSE,3.5,-,N/A,,Clear,160,2013-02-06 05:35:00
11:55 PM,30.6,27.1,87,30.06,10.0,SSW,3.5,-,N/A,,Clear,200,2013-02-06 05:55:00